createdAt,value
2022-08-03T00:00:17.572Z,15.10
2022-08-03T00:03:08.967Z,14.10
2022-08-03T00:06:03.713Z,13.50
2022-08-03T00:08:40.051Z,14.50
2022-08-03T00:11:13.030Z,14.90
2022-08-03T00:13:45.589Z,16.80
2022-08-03T00:16:18.330Z,13.40
2022-08-03T00:18:52.343Z,14.50
2022-08-03T00:21:25.087Z,14.10
2022-08-03T00:23:57.600Z,12.20
2022-08-03T00:26:29.954Z,13.50
2022-08-03T00:29:02.558Z,11.20
2022-08-03T00:31:51.438Z,12.40
2022-08-03T00:34:36.736Z,13.70
2022-08-03T00:37:17.599Z,14.10
2022-08-03T00:39:50.096Z,13.60
2022-08-03T00:42:22.387Z,14.10
2022-08-03T00:45:01.904Z,12.10
2022-08-03T00:47:34.209Z,13.80
2022-08-03T00:50:07.354Z,13.30
2022-08-03T00:52:40.173Z,12.40
2022-08-03T00:55:13.029Z,16.50
2022-08-03T00:57:46.368Z,14.80
2022-08-03T01:00:20.909Z,11.80
2022-08-03T01:02:56.006Z,12.40
2022-08-03T01:05:29.014Z,15.60
2022-08-03T01:08:09.677Z,17.00
2022-08-03T01:10:50.519Z,14.20
2022-08-03T01:14:01.243Z,15.40
2022-08-03T01:16:36.866Z,17.20
2022-08-03T01:19:30.915Z,14.10
2022-08-03T01:22:19.363Z,14.70
2022-08-03T01:24:58.439Z,17.20
2022-08-03T01:27:41.884Z,16.80
2022-08-03T01:30:15.235Z,13.70
2022-08-03T01:33:00.969Z,15.10
2022-08-03T01:35:38.526Z,16.70
2022-08-03T01:38:16.474Z,13.80
2022-08-03T01:40:52.258Z,13.70
2022-08-03T01:43:55.092Z,15.60
2022-08-03T01:46:22.264Z,14.30
2022-08-03T01:48:55.303Z,12.80
2022-08-03T01:52:03.702Z,17.30
2022-08-03T01:54:23.103Z,14.50
2022-08-03T01:56:58.237Z,13.70
2022-08-03T01:59:32.365Z,19.50
2022-08-03T02:02:28.250Z,16.40
2022-08-03T02:04:59.955Z,16.70
2022-08-03T02:07:33.896Z,18.10
2022-08-03T02:10:10.834Z,15.80
2022-08-03T02:12:46.553Z,14.70
2022-08-03T02:15:21.744Z,16.40
2022-08-03T02:17:56.037Z,19.50
2022-08-03T02:20:30.338Z,17.70
2022-08-03T02:23:02.788Z,18.40
2022-08-03T02:25:36.594Z,15.00
2022-08-03T02:28:12.735Z,17.20
2022-08-03T02:30:51.836Z,16.30
2022-08-03T02:33:29.991Z,18.30
2022-08-03T02:36:03.904Z,16.70
2022-08-03T02:38:38.301Z,15.20
2022-08-03T02:41:15.016Z,17.20
2022-08-03T02:44:05.595Z,15.60
2022-08-03T02:46:42.793Z,15.70
2022-08-03T02:49:49.669Z,17.90
2022-08-03T02:52:17.019Z,18.00
2022-08-03T02:54:50.627Z,16.80
2022-08-03T02:57:24.634Z,15.60
2022-08-03T02:59:58.847Z,16.30
2022-08-03T03:02:31.834Z,18.30
2022-08-03T03:05:53.088Z,16.70
2022-08-03T03:07:58.352Z,20.80
2022-08-03T03:10:30.758Z,18.70
2022-08-03T03:13:04.541Z,19.90
2022-08-03T03:15:40.421Z,18.00
2022-08-03T03:18:15.916Z,20.80
2022-08-03T03:20:53.022Z,20.60
2022-08-03T03:23:27.061Z,19.30
2022-08-03T03:26:02.629Z,19.60
2022-08-03T03:28:37.069Z,18.50
2022-08-03T03:31:11.009Z,18.50
2022-08-03T03:33:43.927Z,18.00
2022-08-03T03:36:16.303Z,16.80
2022-08-03T03:38:48.985Z,18.10
2022-08-03T03:41:22.171Z,15.90
2022-08-03T03:43:54.766Z,17.80
2022-08-03T03:46:27.632Z,18.20
2022-08-03T03:49:00.480Z,21.30
2022-08-03T03:51:34.733Z,20.10
2022-08-03T03:54:07.482Z,22.00
2022-08-03T03:56:40.099Z,17.20
2022-08-03T03:59:12.249Z,22.00
2022-08-03T04:01:45.115Z,17.50
2022-08-03T04:04:34.822Z,19.20
2022-08-03T04:07:24.572Z,19.70
2022-08-03T04:10:15.815Z,18.90
2022-08-03T04:12:50.615Z,19.50
2022-08-03T04:15:25.269Z,20.50
2022-08-03T04:17:59.454Z,18.60
2022-08-03T04:20:37.091Z,19.40
2022-08-03T04:23:13.726Z,20.70
2022-08-03T04:25:50.536Z,19.80
2022-08-03T04:28:31.386Z,18.20
2022-08-03T04:31:04.719Z,23.90
2022-08-03T04:33:40.101Z,23.00
2022-08-03T04:36:15.935Z,20.90
2022-08-03T04:39:02.000Z,23.20
2022-08-03T04:42:04.325Z,18.30
2022-08-03T04:44:30.389Z,22.50
2022-08-03T04:47:03.462Z,18.90
2022-08-03T04:49:37.427Z,24.60
2022-08-03T04:52:11.225Z,22.90
2022-08-03T04:54:48.788Z,19.60
2022-08-03T04:57:25.167Z,22.80
2022-08-03T05:00:02.584Z,26.20
2022-08-03T05:02:35.479Z,21.80
2022-08-03T05:05:08.551Z,22.20
2022-08-03T05:07:43.764Z,24.30
2022-08-03T05:10:17.674Z,21.60
2022-08-03T05:12:52.329Z,22.20
2022-08-03T05:15:24.899Z,24.30
2022-08-03T05:17:57.235Z,23.80
2022-08-03T05:20:29.752Z,24.90
2022-08-03T05:23:03.975Z,21.70
2022-08-03T05:25:36.791Z,21.00
2022-08-03T05:28:09.470Z,19.80
2022-08-03T05:30:41.973Z,18.90
2022-08-03T05:33:14.448Z,18.30
2022-08-03T05:35:57.603Z,20.40
2022-08-03T05:38:36.440Z,16.30
2022-08-03T05:41:21.374Z,20.10
2022-08-03T05:43:57.322Z,25.80
2022-08-03T05:46:29.834Z,27.30
2022-08-03T05:49:02.206Z,34.70
2022-08-03T05:51:34.828Z,26.10
2022-08-03T05:54:07.031Z,21.30
2022-08-03T05:56:41.232Z,24.70
2022-08-03T05:59:37.149Z,23.40
2022-08-03T06:02:06.855Z,21.90
2022-08-03T06:04:39.362Z,20.00
2022-08-03T06:07:11.811Z,18.30
2022-08-03T06:10:35.184Z,17.50
2022-08-03T06:12:36.772Z,17.20
2022-08-03T06:15:11.468Z,16.10
2022-08-03T06:17:51.277Z,22.50
2022-08-03T06:20:27.323Z,18.20
2022-08-03T06:23:01.253Z,20.30
2022-08-03T06:25:33.957Z,17.70
2022-08-03T06:28:09.494Z,16.50
2022-08-03T06:30:44.849Z,18.40
2022-08-03T06:33:17.368Z,17.30
2022-08-03T06:35:49.596Z,18.70
2022-08-03T06:38:22.253Z,18.80
2022-08-03T06:40:54.959Z,18.70
2022-08-03T06:43:27.633Z,16.30
2022-08-03T06:45:59.834Z,18.20
2022-08-03T06:48:32.485Z,18.10
2022-08-03T06:51:04.814Z,19.30
2022-08-03T06:53:39.542Z,25.10
2022-08-03T06:56:11.855Z,22.00
2022-08-03T06:58:44.562Z,18.70
2022-08-03T07:01:18.798Z,20.30
2022-08-03T07:03:52.288Z,20.80
2022-08-03T07:06:24.964Z,16.40
2022-08-03T07:08:59.715Z,14.80
2022-08-03T07:11:32.316Z,15.90
2022-08-03T07:14:04.578Z,18.70
2022-08-03T07:16:36.878Z,16.20
2022-08-03T07:19:09.311Z,15.80
2022-08-03T07:21:41.721Z,16.30
2022-08-03T07:24:14.501Z,11.90
2022-08-03T07:26:47.692Z,15.70
2022-08-03T07:29:20.850Z,14.40
2022-08-03T07:31:53.257Z,13.20
2022-08-03T07:34:25.949Z,12.20
2022-08-03T07:36:59.538Z,10.10
2022-08-03T07:39:31.819Z,11.30
2022-08-03T07:42:04.427Z,10.30
2022-08-03T07:44:36.996Z,15.40
2022-08-03T07:47:09.650Z,11.70
2022-08-03T07:49:54.930Z,11.40
2022-08-03T07:52:44.776Z,8.70
2022-08-03T07:55:17.536Z,7.10
2022-08-03T07:58:00.493Z,8.50
2022-08-03T08:00:33.594Z,12.70
2022-08-03T08:03:06.115Z,9.10
2022-08-03T08:05:39.179Z,7.60
2022-08-03T08:08:11.636Z,8.80
2022-08-03T08:10:58.148Z,9.90
2022-08-03T08:13:31.491Z,6.60
2022-08-03T08:16:03.952Z,6.80
2022-08-03T08:18:36.274Z,7.10
2022-08-03T08:21:08.826Z,5.70
2022-08-03T08:23:44.367Z,7.30
2022-08-03T08:26:22.278Z,7.10
2022-08-03T08:28:54.593Z,4.30
2022-08-03T08:31:26.950Z,3.30
2022-08-03T08:34:04.014Z,7.40
2022-08-03T08:36:37.630Z,5.10
2022-08-03T08:39:10.310Z,3.00
2022-08-03T08:41:45.933Z,2.90
2022-08-03T08:44:19.804Z,7.70
2022-08-03T08:46:55.045Z,4.20
2022-08-03T08:49:29.610Z,3.30
2022-08-03T08:52:04.603Z,3.50
2022-08-03T08:55:00.159Z,2.70
2022-08-03T08:57:42.692Z,6.50
2022-08-03T09:00:17.723Z,3.20
2022-08-03T09:02:50.409Z,4.70
2022-08-03T09:05:36.270Z,4.00
2022-08-03T09:08:15.732Z,2.40
2022-08-03T09:10:48.205Z,5.30
2022-08-03T09:13:20.855Z,2.50
2022-08-03T09:16:12.452Z,6.60
2022-08-03T09:18:46.527Z,4.00
2022-08-03T09:21:34.619Z,5.00
2022-08-03T09:24:20.627Z,7.10
2022-08-03T09:27:01.108Z,4.70
2022-08-03T09:29:36.284Z,6.20
2022-08-03T09:32:08.932Z,3.20
2022-08-03T09:34:41.128Z,2.10
2022-08-03T09:37:18.243Z,3.10
2022-08-03T09:39:50.869Z,4.30
2022-08-03T09:42:24.297Z,7.30
2022-08-03T09:44:58.444Z,2.60
2022-08-03T09:47:36.434Z,8.30
2022-08-03T09:50:10.845Z,5.50
2022-08-03T09:52:49.818Z,6.00
2022-08-03T09:56:36.263Z,6.40
2022-08-03T09:58:17.919Z,3.30
2022-08-03T10:00:58.365Z,4.50
2022-08-03T10:03:32.081Z,3.00
2022-08-03T10:06:19.591Z,4.90
2022-08-03T10:09:08.282Z,3.00
2022-08-03T10:11:42.561Z,3.50
2022-08-03T10:14:19.344Z,4.80
2022-08-03T10:16:52.524Z,3.00
2022-08-03T10:19:25.769Z,4.40
2022-08-03T10:22:02.580Z,6.20
2022-08-03T10:24:38.588Z,3.00
2022-08-03T10:27:12.777Z,2.40
2022-08-03T10:29:56.263Z,4.60
2022-08-03T10:32:33.264Z,5.20
2022-08-03T10:35:19.920Z,2.50
2022-08-03T10:38:00.578Z,4.10
2022-08-03T10:40:52.614Z,4.50
2022-08-03T10:43:31.945Z,4.10
2022-08-03T10:46:06.417Z,9.40
2022-08-03T10:48:39.585Z,3.00
2022-08-03T10:51:12.009Z,2.90
2022-08-03T10:53:54.139Z,3.40
2022-08-03T10:57:13.715Z,2.50
2022-08-03T11:00:06.678Z,6.00
2022-08-03T11:03:06.829Z,2.90
2022-08-03T11:05:42.117Z,6.60
2022-08-03T11:08:35.954Z,6.80
2022-08-03T11:11:28.870Z,4.60
2022-08-03T11:14:04.674Z,3.50
2022-08-03T11:16:39.091Z,4.60
2022-08-03T11:19:12.790Z,4.50
2022-08-03T11:22:01.440Z,4.10
2022-08-03T11:25:53.417Z,5.70
2022-08-03T11:28:28.661Z,3.90
2022-08-03T11:31:53.692Z,3.00
2022-08-03T11:34:25.995Z,3.00
2022-08-03T11:37:29.948Z,5.90
2022-08-03T11:40:06.051Z,4.80
2022-08-03T11:42:48.598Z,5.50
2022-08-03T11:45:20.824Z,3.40
2022-08-03T11:47:58.809Z,5.50
2022-08-03T11:50:39.152Z,4.50
2022-08-03T11:53:17.645Z,3.40
2022-08-03T11:55:51.183Z,4.30
2022-08-03T11:59:16.753Z,4.30
2022-08-03T12:01:22.897Z,4.40
2022-08-03T12:03:55.753Z,4.80
2022-08-03T12:06:28.218Z,4.00
2022-08-03T12:09:00.591Z,7.40
2022-08-03T12:11:32.866Z,4.50
2022-08-03T12:14:48.638Z,4.90
2022-08-03T12:16:57.679Z,5.50
2022-08-03T12:19:44.718Z,3.30
2022-08-03T12:22:18.127Z,4.10
2022-08-03T12:24:51.909Z,3.40
2022-08-03T12:27:29.981Z,7.50
2022-08-03T12:30:03.873Z,4.80
2022-08-03T12:32:36.355Z,4.40
2022-08-03T12:35:10.445Z,9.20
2022-08-03T12:37:49.361Z,7.50
2022-08-03T12:40:29.052Z,6.80
2022-08-03T12:43:03.623Z,5.30
2022-08-03T12:45:36.982Z,6.90
2022-08-03T12:48:13.349Z,5.00
2022-08-03T12:50:46.150Z,4.30
2022-08-03T12:53:32.752Z,4.20
2022-08-03T12:56:07.473Z,8.10
2022-08-03T12:58:39.633Z,5.40
2022-08-03T13:01:13.667Z,5.80
2022-08-03T13:03:52.753Z,6.40
2022-08-03T13:06:26.801Z,4.60
2022-08-03T13:09:09.960Z,3.70
2022-08-03T13:11:57.806Z,4.70
2022-08-03T13:14:34.653Z,5.30
2022-08-03T13:17:08.128Z,4.10
2022-08-03T13:19:41.682Z,10.30
2022-08-03T13:22:19.197Z,4.60
2022-08-03T13:24:56.169Z,4.50
2022-08-03T13:28:04.517Z,4.20
2022-08-03T13:30:30.198Z,4.20
2022-08-03T13:33:03.522Z,5.00
2022-08-03T13:35:36.140Z,3.70
2022-08-03T13:38:08.474Z,4.40
2022-08-03T13:40:41.810Z,6.70
2022-08-03T13:43:14.672Z,7.00
2022-08-03T13:45:52.310Z,5.70
2022-08-03T13:48:36.184Z,5.20
2022-08-03T13:51:11.778Z,7.90
2022-08-03T13:53:54.896Z,4.90
2022-08-03T13:56:27.641Z,3.70
2022-08-03T13:59:00.437Z,6.00
2022-08-03T14:01:54.561Z,6.50
2022-08-03T14:04:28.002Z,7.50
2022-08-03T14:07:00.992Z,5.80
2022-08-03T14:09:33.385Z,4.20
2022-08-03T14:12:08.829Z,4.20
2022-08-03T14:14:41.773Z,4.80
2022-08-03T14:17:16.499Z,6.00
2022-08-03T14:19:52.681Z,3.70
2022-08-03T14:22:29.037Z,4.70
2022-08-03T14:25:04.150Z,5.40
2022-08-03T14:27:37.376Z,4.50
2022-08-03T14:30:11.881Z,4.20
2022-08-03T14:32:44.376Z,6.10
2022-08-03T14:35:16.826Z,8.40
2022-08-03T14:37:49.284Z,6.10
2022-08-03T14:40:22.002Z,4.30
2022-08-03T14:42:54.718Z,7.30
2022-08-03T14:45:27.260Z,5.30
2022-08-03T14:50:33.886Z,4.70
2022-08-03T14:50:53.112Z,6.30
2022-08-03T14:53:26.187Z,7.60
2022-08-03T14:55:58.827Z,5.30
2022-08-03T14:58:31.478Z,5.10
2022-08-03T15:01:03.693Z,4.80
2022-08-03T15:03:56.187Z,4.80
2022-08-03T15:06:28.485Z,6.20
2022-08-03T15:09:21.639Z,3.90
2022-08-03T15:11:52.937Z,3.90
2022-08-03T15:14:28.310Z,4.60
2022-08-03T15:17:05.060Z,7.90
2022-08-03T15:20:03.860Z,4.10
2022-08-03T15:22:34.980Z,4.60
2022-08-03T15:26:04.143Z,4.10
2022-08-03T15:28:02.697Z,6.90
2022-08-03T15:30:38.841Z,4.90
2022-08-03T15:33:11.102Z,6.60
2022-08-03T15:35:43.640Z,6.20
2022-08-03T15:38:16.156Z,3.90
2022-08-03T15:40:48.658Z,4.20
2022-08-03T15:43:20.726Z,4.70
2022-08-03T15:48:45.986Z,5.70
2022-08-03T15:51:18.463Z,4.70
2022-08-03T15:53:50.663Z,6.20
2022-08-03T15:56:23.020Z,4.70
2022-08-03T15:59:11.541Z,6.90
2022-08-03T16:01:46.493Z,5.20
2022-08-03T16:04:19.317Z,4.40
2022-08-03T16:06:51.895Z,5.00
2022-08-03T16:09:43.035Z,4.60
2022-08-03T16:12:16.909Z,4.30
2022-08-03T16:14:53.445Z,4.90
2022-08-03T16:17:26.470Z,4.30
2022-08-03T16:19:59.043Z,5.20
2022-08-03T16:22:32.315Z,5.20
2022-08-03T16:25:05.838Z,4.40
2022-08-03T16:27:56.693Z,5.20
2022-08-03T16:30:33.304Z,5.10
2022-08-03T16:33:05.778Z,5.20
2022-08-03T16:35:38.454Z,6.60
2022-08-03T16:38:14.186Z,6.60
2022-08-03T16:40:52.302Z,4.40
2022-08-03T16:43:25.493Z,3.90
2022-08-03T16:45:57.605Z,6.10
2022-08-03T16:48:30.322Z,5.50
2022-08-03T16:51:03.171Z,6.50
2022-08-03T16:54:05.421Z,4.50
2022-08-03T16:56:28.056Z,8.50
2022-08-03T16:59:01.534Z,9.30
2022-08-03T17:01:37.944Z,5.00
2022-08-03T17:04:12.092Z,4.40
2022-08-03T17:06:46.344Z,5.00
2022-08-03T17:09:20.469Z,4.60
2022-08-03T17:11:53.921Z,4.50
2022-08-03T17:14:28.580Z,5.80
2022-08-03T17:17:04.771Z,6.40
2022-08-03T17:19:47.403Z,8.60
2022-08-03T17:22:29.369Z,4.10
2022-08-03T17:25:07.860Z,4.80
2022-08-03T17:28:49.758Z,4.10
2022-08-03T17:30:55.872Z,5.30
2022-08-03T17:33:35.581Z,5.10
2022-08-03T17:36:09.161Z,4.80
2022-08-03T17:38:44.303Z,4.00
2022-08-03T17:41:19.894Z,5.20
2022-08-03T17:44:16.011Z,4.10
2022-08-03T17:46:46.575Z,5.30
2022-08-03T17:49:24.530Z,4.40
2022-08-03T17:52:02.959Z,7.30
2022-08-03T17:55:50.763Z,5.80
2022-08-03T17:58:01.326Z,3.80
2022-08-03T18:00:51.798Z,3.90
2022-08-03T18:03:29.149Z,4.20
2022-08-03T18:06:11.822Z,5.40
2022-08-03T18:08:56.573Z,4.20
2022-08-03T18:11:35.526Z,7.00
2022-08-03T18:14:16.989Z,5.60
2022-08-03T18:16:57.648Z,4.30
2022-08-03T18:20:03.682Z,5.40
2022-08-03T18:22:30.618Z,6.30
2022-08-03T18:25:07.870Z,6.40
2022-08-03T18:27:45.443Z,7.40
2022-08-03T18:30:18.740Z,4.30
2022-08-03T18:33:00.623Z,4.90
2022-08-03T18:35:53.784Z,4.70
2022-08-03T18:38:29.105Z,4.70
2022-08-03T18:41:02.109Z,4.60
2022-08-03T18:43:47.560Z,7.80
2022-08-03T18:46:38.241Z,5.80
2022-08-03T18:49:23.544Z,5.70
2022-08-03T18:52:04.987Z,6.10
2022-08-03T18:55:03.842Z,5.50
2022-08-03T18:57:50.912Z,5.70
2022-08-03T19:00:34.261Z,6.80
2022-08-03T19:03:22.722Z,7.10
2022-08-03T19:06:05.968Z,5.30
2022-08-03T19:08:48.103Z,7.40
2022-08-03T19:11:28.206Z,5.20
2022-08-03T19:14:04.150Z,6.00
2022-08-03T19:16:39.553Z,5.90
2022-08-03T19:19:14.596Z,10.30
2022-08-03T19:21:48.342Z,8.60
2022-08-03T19:24:23.546Z,7.10
2022-08-03T19:26:59.136Z,7.50
2022-08-03T19:29:59.079Z,7.10
2022-08-03T19:32:30.035Z,9.50
2022-08-03T19:35:04.617Z,8.10
2022-08-03T19:37:47.094Z,7.20
2022-08-03T19:40:19.778Z,11.50
2022-08-03T19:43:00.441Z,9.80
2022-08-03T19:45:52.638Z,8.10
2022-08-03T19:48:34.763Z,10.80
2022-08-03T19:51:12.201Z,11.40
2022-08-03T19:53:48.446Z,9.00
2022-08-03T19:56:24.730Z,9.40
2022-08-03T19:58:59.616Z,9.00
2022-08-03T20:01:31.884Z,10.70
2022-08-03T20:04:23.436Z,19.90
2022-08-03T20:06:58.748Z,11.90
2022-08-03T20:09:32.093Z,10.40
2022-08-03T20:12:04.402Z,18.90
2022-08-03T20:14:37.199Z,11.30
2022-08-03T20:17:09.848Z,11.90
2022-08-03T20:19:43.357Z,9.70
2022-08-03T20:22:17.282Z,10.40
2022-08-03T20:24:53.008Z,12.40
2022-08-03T20:27:30.053Z,13.40
2022-08-03T20:30:06.633Z,13.20
2022-08-03T20:32:41.686Z,10.30
2022-08-03T20:35:15.732Z,9.80
2022-08-03T20:37:48.309Z,10.40
2022-08-03T20:40:20.667Z,10.50
2022-08-03T20:42:53.320Z,7.90
2022-08-03T20:45:59.685Z,11.70
2022-08-03T20:48:21.981Z,9.60
2022-08-03T20:50:56.503Z,11.40
2022-08-03T20:53:59.783Z,9.30
2022-08-03T20:56:22.878Z,11.80
2022-08-03T20:58:58.023Z,9.40
2022-08-03T21:01:36.372Z,9.40
2022-08-03T21:04:11.194Z,9.70
2022-08-03T21:06:53.234Z,12.20
2022-08-03T21:09:33.478Z,13.40
2022-08-03T21:12:31.492Z,12.10
2022-08-03T21:15:07.484Z,9.80
2022-08-03T21:17:48.795Z,8.10
2022-08-03T21:20:23.539Z,11.20
2022-08-03T21:22:57.926Z,9.40
2022-08-03T21:25:32.466Z,13.30
2022-08-03T21:28:07.523Z,15.10
2022-08-03T21:30:40.688Z,14.20
2022-08-03T21:33:13.673Z,12.40
2022-08-03T21:35:48.589Z,9.80
2022-08-03T21:38:20.941Z,12.30
2022-08-03T21:41:03.180Z,8.80
2022-08-03T21:43:35.659Z,12.50
2022-08-03T21:46:08.921Z,9.40
2022-08-03T21:48:44.865Z,9.40
2022-08-03T21:51:21.376Z,9.50
2022-08-03T21:54:02.913Z,6.80
2022-08-03T21:56:41.578Z,8.40
2022-08-03T21:59:20.421Z,8.40
2022-08-03T22:01:58.660Z,10.50
2022-08-03T22:04:50.692Z,8.90
2022-08-03T22:07:26.199Z,11.10
2022-08-03T22:10:00.732Z,8.60
2022-08-03T22:12:34.197Z,7.80
2022-08-03T22:15:09.603Z,8.20
2022-08-03T22:17:55.352Z,11.40
2022-08-03T22:20:29.500Z,11.50
2022-08-03T22:23:06.762Z,7.10
2022-08-03T22:25:41.516Z,6.40
2022-08-03T22:28:15.296Z,7.50
2022-08-03T22:30:50.294Z,6.70
2022-08-03T22:33:22.454Z,6.80
2022-08-03T22:35:59.555Z,6.10
2022-08-03T22:38:34.092Z,9.60
2022-08-03T22:41:06.872Z,12.30
2022-08-03T22:43:40.048Z,10.80
2022-08-03T22:46:18.527Z,7.30
2022-08-03T22:48:51.961Z,8.00
2022-08-03T22:51:24.753Z,6.50
2022-08-03T22:53:57.493Z,7.90
2022-08-03T22:56:29.938Z,10.30
2022-08-03T22:59:02.063Z,6.60
2022-08-03T23:02:01.693Z,7.60
2022-08-03T23:04:51.076Z,8.60
2022-08-03T23:07:32.866Z,8.30
2022-08-03T23:10:09.839Z,8.20
2022-08-03T23:12:45.027Z,9.30
2022-08-03T23:15:18.833Z,8.00
2022-08-03T23:17:58.586Z,10.10
2022-08-03T23:20:31.894Z,11.40
2022-08-03T23:23:06.236Z,11.90
2022-08-03T23:25:42.139Z,9.80
2022-08-03T23:28:17.482Z,10.70
2022-08-03T23:30:53.300Z,12.10
2022-08-03T23:33:26.265Z,10.00
2022-08-03T23:36:27.931Z,14.10
2022-08-03T23:38:58.185Z,10.40
2022-08-03T23:41:32.422Z,15.00
2022-08-03T23:44:06.360Z,12.60
2022-08-03T23:46:40.015Z,9.70
2022-08-03T23:49:12.759Z,11.80
2022-08-03T23:51:53.760Z,14.60
2022-08-03T23:54:41.313Z,13.20
2022-08-03T23:57:26.783Z,11.70
